createdAt,value
2018-07-13T00:00:06.124Z,6.6
2018-07-13T00:00:22.549Z,6.1
2018-07-13T00:00:38.975Z,5.5
2018-07-13T00:00:55.399Z,6.6
2018-07-13T00:01:11.841Z,8
2018-07-13T00:01:28.264Z,7.2
2018-07-13T00:01:44.695Z,6.9
2018-07-13T00:02:01.118Z,7.3
2018-07-13T00:02:17.544Z,6.9
2018-07-13T00:02:33.969Z,5.6
2018-07-13T00:02:50.392Z,5.3
2018-07-13T00:03:06.830Z,5.4
2018-07-13T00:03:23.253Z,5.6
2018-07-13T00:03:39.678Z,6
2018-07-13T00:03:56.104Z,5.6
2018-07-13T00:04:12.527Z,5.3
2018-07-13T00:04:28.952Z,6
2018-07-13T00:04:45.368Z,6.6
2018-07-13T00:05:01.797Z,7.1
2018-07-13T00:05:18.220Z,6.2
2018-07-13T00:05:34.650Z,6
2018-07-13T00:05:51.070Z,6.6
2018-07-13T00:06:07.544Z,7.1
2018-07-13T00:06:23.969Z,6.7
2018-07-13T00:06:40.410Z,5.4
2018-07-13T00:06:56.813Z,6.3
2018-07-13T00:07:13.248Z,6.8
2018-07-13T00:07:29.671Z,5.7
2018-07-13T00:07:47.087Z,5.9
2018-07-13T00:08:03.513Z,6.4
2018-07-13T00:08:19.939Z,5.6
2018-07-13T00:08:36.364Z,6.1
2018-07-13T00:08:52.788Z,5.9
2018-07-13T00:09:09.213Z,6.1
2018-07-13T00:09:26.631Z,6.6
2018-07-13T00:09:43.058Z,5.7
2018-07-13T00:09:59.481Z,6.8
2018-07-13T00:10:15.904Z,7.3
2018-07-13T00:10:32.326Z,5.6
2018-07-13T00:10:48.751Z,5.4
2018-07-13T00:11:05.198Z,6.5
2018-07-13T00:11:21.622Z,6.1
2018-07-13T00:11:38.050Z,5.5
2018-07-13T00:11:54.473Z,6.3
2018-07-13T00:12:10.896Z,6.4
2018-07-13T00:12:27.321Z,6.1
2018-07-13T00:12:43.749Z,7
2018-07-13T00:13:00.178Z,6.9
2018-07-13T00:13:16.602Z,7.3
2018-07-13T00:13:33.034Z,7.1
2018-07-13T00:13:49.452Z,6.2
2018-07-13T00:14:05.879Z,6.2
2018-07-13T00:14:22.300Z,6
2018-07-13T00:14:38.724Z,6.4
2018-07-13T00:14:55.146Z,7.6
2018-07-13T00:15:11.614Z,6.9
2018-07-13T00:15:27.999Z,5.6
2018-07-13T00:15:44.417Z,6.2
2018-07-13T00:16:00.843Z,7
2018-07-13T00:16:17.307Z,7.2
2018-07-13T00:16:33.737Z,6.4
2018-07-13T00:16:50.215Z,6.6
2018-07-13T00:17:06.596Z,6
2018-07-13T00:17:23.016Z,5.6
2018-07-13T00:17:39.438Z,6.1
2018-07-13T00:17:55.863Z,5.9
2018-07-13T00:18:12.287Z,6.1
2018-07-13T00:18:29.710Z,5.2
2018-07-13T00:18:46.142Z,5.4
2018-07-13T00:19:02.566Z,7.2
2018-07-13T00:19:18.990Z,7.2
2018-07-13T00:19:35.424Z,6.5
2018-07-13T00:19:51.845Z,6.2
2018-07-13T00:20:08.273Z,7.2
2018-07-13T00:20:24.689Z,7.1
2018-07-13T00:20:41.112Z,6.4
2018-07-13T00:20:57.537Z,7.1
2018-07-13T00:21:13.998Z,6.5
2018-07-13T00:21:30.421Z,6.3
2018-07-13T00:21:46.846Z,6.7
2018-07-13T00:22:03.273Z,6
2018-07-13T00:22:19.699Z,5.3
2018-07-13T00:22:36.124Z,6.6
2018-07-13T00:22:52.551Z,6.9
2018-07-13T00:23:08.978Z,5.7
2018-07-13T00:23:25.402Z,5.2
2018-07-13T00:23:41.827Z,6
2018-07-13T00:23:58.249Z,6.6
2018-07-13T00:24:14.683Z,6.9
2018-07-13T00:24:31.110Z,5.8
2018-07-13T00:24:47.535Z,6.9
2018-07-13T00:25:03.961Z,6.4
2018-07-13T00:25:20.385Z,5.3
2018-07-13T00:25:36.809Z,5.2
2018-07-13T00:25:53.234Z,6.3
2018-07-13T00:26:09.657Z,6.9
2018-07-13T00:26:26.120Z,7.1
2018-07-13T00:26:42.594Z,7.5
2018-07-13T00:26:58.975Z,6.7
2018-07-13T00:27:15.404Z,5.8
2018-07-13T00:27:31.829Z,6.5
2018-07-13T00:27:48.249Z,6
2018-07-13T00:28:04.672Z,5.2
2018-07-13T00:28:21.096Z,5.5
2018-07-13T00:28:37.557Z,6.2
2018-07-13T00:28:53.942Z,5.9
2018-07-13T00:29:10.367Z,6.3
2018-07-13T00:29:26.804Z,5.8
2018-07-13T00:29:43.227Z,4.9
2018-07-13T00:29:59.646Z,5.4
2018-07-13T00:30:16.071Z,5.8
2018-07-13T00:30:32.494Z,6.3
2018-07-13T00:30:48.917Z,6.5
2018-07-13T00:31:05.346Z,5.6
2018-07-13T00:31:22.799Z,5.3
2018-07-13T00:31:39.223Z,5.9
2018-07-13T00:31:56.637Z,6.2
2018-07-13T00:32:13.062Z,6.5
2018-07-13T00:32:29.488Z,5.3
2018-07-13T00:32:45.914Z,5.4
2018-07-13T00:33:02.353Z,6.7
2018-07-13T00:33:18.774Z,6.5
2018-07-13T00:33:35.198Z,6.5
2018-07-13T00:33:51.622Z,5.9
2018-07-13T00:34:08.045Z,5.4
2018-07-13T00:34:24.468Z,5.2
2018-07-13T00:34:40.899Z,6.9
2018-07-13T00:34:57.321Z,6.9
2018-07-13T00:35:13.749Z,5.6
2018-07-13T00:35:30.176Z,6.2
2018-07-13T00:35:46.597Z,6
2018-07-13T00:36:04.013Z,6
2018-07-13T00:36:20.436Z,6.7
2018-07-13T00:36:36.877Z,6.3
2018-07-13T00:36:53.301Z,6.2
2018-07-13T00:37:09.725Z,5.9
2018-07-13T00:37:26.154Z,5.6
2018-07-13T00:37:42.576Z,5.1
2018-07-13T00:37:59.000Z,5.8
2018-07-13T00:38:15.424Z,6.1
2018-07-13T00:38:31.848Z,5.7
2018-07-13T00:38:48.271Z,6.3
2018-07-13T00:39:04.697Z,6.3
2018-07-13T00:39:21.125Z,5.1
2018-07-13T00:39:37.546Z,4.9
2018-07-13T00:39:53.971Z,5
2018-07-13T00:40:10.396Z,6.3
2018-07-13T00:40:26.819Z,5.9
2018-07-13T00:40:43.245Z,5.8
2018-07-13T00:40:59.669Z,6
2018-07-13T00:41:16.093Z,5.7
2018-07-13T00:41:32.568Z,6
2018-07-13T00:41:48.993Z,7.1
2018-07-13T00:42:05.420Z,7.5
2018-07-13T00:42:21.842Z,7.4
2018-07-13T00:42:38.266Z,6.3
2018-07-13T00:42:54.688Z,6.9
2018-07-13T00:43:11.114Z,6.3
2018-07-13T00:43:27.538Z,5.7
2018-07-13T00:43:43.963Z,6
2018-07-13T00:44:00.394Z,5.8
2018-07-13T00:44:16.827Z,5.9
2018-07-13T00:44:33.251Z,7.3
2018-07-13T00:44:49.673Z,6.5
2018-07-13T00:45:06.099Z,6.5
2018-07-13T00:45:22.522Z,8.6
2018-07-13T00:45:38.948Z,7.2
2018-07-13T00:45:55.372Z,5
2018-07-13T00:46:11.797Z,5.4
2018-07-13T00:46:28.251Z,5.8
2018-07-13T00:46:44.675Z,5.7
2018-07-13T00:47:01.108Z,6
2018-07-13T00:47:17.544Z,5.8
2018-07-13T00:47:33.968Z,5.2
2018-07-13T00:47:50.392Z,5.7
2018-07-13T00:48:06.819Z,5.6
2018-07-13T00:48:23.248Z,5.9
2018-07-13T00:48:39.676Z,6.6
2018-07-13T00:48:56.098Z,6.2
2018-07-13T00:49:12.539Z,5.6
2018-07-13T00:49:28.978Z,6.1
2018-07-13T00:49:46.396Z,6.6
2018-07-13T00:50:02.820Z,6.7
2018-07-13T00:50:19.248Z,7.3
2018-07-13T00:50:35.693Z,7.1
2018-07-13T00:50:52.121Z,6.1
2018-07-13T00:51:08.549Z,4.7
2018-07-13T00:51:24.975Z,5.4
2018-07-13T00:51:41.404Z,7.7
2018-07-13T00:51:57.828Z,6.5
2018-07-13T00:52:14.252Z,4.9
2018-07-13T00:52:30.677Z,5
2018-07-13T00:52:47.100Z,6
2018-07-13T00:53:03.524Z,6.6
2018-07-13T00:53:19.948Z,6.2
2018-07-13T00:53:36.372Z,5.7
2018-07-13T00:53:52.797Z,6.4
2018-07-13T00:54:09.220Z,5.8
2018-07-13T00:54:25.651Z,6
2018-07-13T00:54:42.067Z,5.7
2018-07-13T00:54:58.497Z,6.3
2018-07-13T00:55:14.917Z,6
2018-07-13T00:55:31.353Z,7.2
2018-07-13T00:55:47.781Z,6.4
2018-07-13T00:56:04.212Z,5.2
2018-07-13T00:56:20.638Z,5.8
2018-07-13T00:56:37.076Z,5.9
2018-07-13T00:56:53.509Z,5.2
2018-07-13T00:57:09.936Z,5.9
2018-07-13T00:57:26.364Z,5.8
2018-07-13T00:57:42.787Z,6.2
2018-07-13T00:57:59.216Z,5.9
2018-07-13T00:58:15.640Z,5.3
2018-07-13T00:58:32.067Z,4.9
2018-07-13T00:58:48.489Z,5.2
2018-07-13T00:59:04.901Z,5.1
2018-07-13T00:59:21.324Z,6.4
2018-07-13T00:59:37.751Z,7.1
2018-07-13T00:59:54.185Z,5.8
2018-07-13T01:00:10.611Z,6.1
2018-07-13T01:00:27.047Z,6
2018-07-13T01:00:43.470Z,5.3
2018-07-13T01:00:59.894Z,6.2
2018-07-13T01:01:16.319Z,5.8
2018-07-13T01:01:32.737Z,5.1
2018-07-13T01:01:49.180Z,6.5
2018-07-13T01:02:05.603Z,6.4
2018-07-13T01:02:22.027Z,5.2
2018-07-13T01:02:38.451Z,5.3
2018-07-13T01:02:54.875Z,6
2018-07-13T01:03:11.301Z,5.4
2018-07-13T01:03:27.725Z,6.8
2018-07-13T01:03:44.147Z,7.4
2018-07-13T01:04:00.559Z,5.9
2018-07-13T01:04:16.988Z,5.2
2018-07-13T01:04:33.413Z,5.3
2018-07-13T01:04:49.839Z,5.3
2018-07-13T01:05:06.276Z,5.4
2018-07-13T01:05:22.696Z,4.9
2018-07-13T01:05:39.123Z,6.3
2018-07-13T01:05:55.551Z,6.5
2018-07-13T01:06:11.974Z,5.8
2018-07-13T01:06:28.396Z,5.6
2018-07-13T01:06:44.840Z,5.8
2018-07-13T01:07:01.265Z,6.2
2018-07-13T01:07:17.693Z,6.4
2018-07-13T01:07:34.115Z,5.6
2018-07-13T01:07:50.538Z,6.1
2018-07-13T01:08:06.962Z,6.6
2018-07-13T01:08:23.384Z,5.8
2018-07-13T01:08:39.807Z,5.5
2018-07-13T01:08:56.235Z,5.2
2018-07-13T01:09:12.659Z,4.7
2018-07-13T01:09:29.101Z,5.1
2018-07-13T01:09:45.522Z,6.7
2018-07-13T01:10:01.948Z,6.2
2018-07-13T01:10:18.372Z,5.7
2018-07-13T01:10:34.793Z,6.3
2018-07-13T01:10:51.219Z,5.4
2018-07-13T01:11:07.634Z,5.9
2018-07-13T01:11:24.059Z,6.1
2018-07-13T01:11:40.484Z,5.7
2018-07-13T01:11:56.942Z,5.9
2018-07-13T01:12:13.367Z,5.4
2018-07-13T01:12:29.797Z,5.3
2018-07-13T01:12:46.220Z,5.6
2018-07-13T01:13:02.643Z,5.8
2018-07-13T01:13:19.066Z,5
2018-07-13T01:13:35.493Z,5.4
2018-07-13T01:13:51.917Z,6
2018-07-13T01:14:08.342Z,5.9
2018-07-13T01:14:24.766Z,5.6
2018-07-13T01:14:41.194Z,5.4
2018-07-13T01:14:57.617Z,5.2
2018-07-13T01:15:14.046Z,5.2
2018-07-13T01:15:30.468Z,5.9
2018-07-13T01:15:46.892Z,6.8
2018-07-13T01:16:03.315Z,6.8
2018-07-13T01:16:19.739Z,5.4
2018-07-13T01:16:36.170Z,5.1
2018-07-13T01:16:52.598Z,5.4
2018-07-13T01:17:09.037Z,5.7
2018-07-13T01:17:25.450Z,5.5
2018-07-13T01:17:41.875Z,5.9
2018-07-13T01:17:58.299Z,6.9
2018-07-13T01:18:14.725Z,7.1
2018-07-13T01:18:31.151Z,5.8
2018-07-13T01:18:48.568Z,5.4
2018-07-13T01:19:04.995Z,6
2018-07-13T01:19:21.415Z,6.8
2018-07-13T01:19:37.838Z,6.6
2018-07-13T01:19:55.261Z,6.1
2018-07-13T01:20:11.694Z,5.9
2018-07-13T01:20:29.108Z,5.9
2018-07-13T01:20:45.538Z,6.8
2018-07-13T01:21:01.962Z,6.9
2018-07-13T01:21:18.391Z,6.3
2018-07-13T01:21:34.817Z,5.9
2018-07-13T01:21:51.240Z,5.6
2018-07-13T01:22:07.724Z,5.6
2018-07-13T01:22:24.149Z,5.8
2018-07-13T01:22:40.585Z,5.5
2018-07-13T01:22:57.012Z,5.7
2018-07-13T01:23:13.444Z,6.6
2018-07-13T01:23:29.863Z,6.6
2018-07-13T01:23:46.290Z,7.4
2018-07-13T01:24:02.711Z,6.4
2018-07-13T01:24:19.138Z,5.8
2018-07-13T01:24:35.565Z,6.3
2018-07-13T01:24:51.980Z,6
2018-07-13T01:25:08.407Z,5.8
2018-07-13T01:25:24.831Z,5.9
2018-07-13T01:25:41.253Z,6.6
2018-07-13T01:25:57.694Z,6
2018-07-13T01:26:14.118Z,4.7
2018-07-13T01:26:30.542Z,5.4
2018-07-13T01:26:47.959Z,6.4
2018-07-13T01:27:04.403Z,6.5
2018-07-13T01:27:20.827Z,6.1
2018-07-13T01:27:37.247Z,5.9
2018-07-13T01:27:53.668Z,5.6
2018-07-13T01:28:10.097Z,4.9
2018-07-13T01:28:26.518Z,5.4
2018-07-13T01:28:42.946Z,5.7
2018-07-13T01:28:59.380Z,5.8
2018-07-13T01:29:15.814Z,6.8
2018-07-13T01:29:32.239Z,6.6
2018-07-13T01:29:48.663Z,6.3
2018-07-13T01:30:06.092Z,5.7
2018-07-13T01:30:22.516Z,5.1
2018-07-13T01:30:38.939Z,5.6
2018-07-13T01:30:56.353Z,6.6
2018-07-13T01:31:12.792Z,5.8
2018-07-13T01:31:29.216Z,5.6
2018-07-13T01:31:46.630Z,6.9
2018-07-13T01:32:03.060Z,6.3
2018-07-13T01:32:19.503Z,5.9
2018-07-13T01:32:36.919Z,6.4
2018-07-13T01:32:53.341Z,6.3
2018-07-13T01:33:09.766Z,6.1
2018-07-13T01:33:26.190Z,5.4
2018-07-13T01:33:42.616Z,6.2
2018-07-13T01:33:59.043Z,6.1
2018-07-13T01:34:15.467Z,5.5
2018-07-13T01:34:31.895Z,5.4
2018-07-13T01:34:48.320Z,5.5
2018-07-13T01:35:04.744Z,5.3
2018-07-13T01:35:21.174Z,5.4
2018-07-13T01:35:37.599Z,5.3
2018-07-13T01:35:54.022Z,6
2018-07-13T01:36:10.447Z,6.7
2018-07-13T01:36:26.872Z,5.8
2018-07-13T01:36:43.300Z,6.3
2018-07-13T01:36:59.728Z,7.3
2018-07-13T01:37:16.189Z,6
2018-07-13T01:37:32.613Z,5.5
2018-07-13T01:37:49.039Z,6.2
2018-07-13T01:38:05.463Z,6.2
2018-07-13T01:38:21.893Z,5.4
2018-07-13T01:38:38.319Z,6.2
2018-07-13T01:38:54.743Z,4.8
2018-07-13T01:39:11.168Z,4.5
2018-07-13T01:39:27.613Z,6.5
2018-07-13T01:39:44.038Z,6.2
2018-07-13T01:40:00.461Z,5.1
2018-07-13T01:40:16.885Z,6.7
2018-07-13T01:40:33.318Z,6.8
2018-07-13T01:40:49.747Z,5.2
2018-07-13T01:41:06.167Z,6.2
2018-07-13T01:41:22.601Z,6.4
2018-07-13T01:41:39.023Z,6.1
2018-07-13T01:41:55.452Z,6.5
2018-07-13T01:42:11.875Z,6
2018-07-13T01:42:28.317Z,4.7
2018-07-13T01:42:44.739Z,6
2018-07-13T01:43:01.168Z,6
2018-07-13T01:43:18.578Z,6
2018-07-13T01:43:35.006Z,6.3
2018-07-13T01:43:51.429Z,7.1
2018-07-13T01:44:07.857Z,7.6
2018-07-13T01:44:24.280Z,7.6
2018-07-13T01:44:40.705Z,8.2
2018-07-13T01:44:57.137Z,8.4
2018-07-13T01:45:13.563Z,5.7
2018-07-13T01:45:29.987Z,5.5
2018-07-13T01:45:46.422Z,5
2018-07-13T01:46:02.848Z,5.1
2018-07-13T01:46:19.290Z,5.8
2018-07-13T01:46:35.716Z,5.8
2018-07-13T01:46:52.140Z,5.8
2018-07-13T01:47:08.565Z,6
2018-07-13T01:47:25.003Z,6.1
2018-07-13T01:47:41.426Z,6.1
2018-07-13T01:47:57.853Z,6.8
2018-07-13T01:48:14.276Z,7
2018-07-13T01:48:30.701Z,6.3
2018-07-13T01:48:47.147Z,8.2
2018-07-13T01:49:03.584Z,9.1
2018-07-13T01:49:20.009Z,7.5
2018-07-13T01:49:36.434Z,6.5
2018-07-13T01:49:52.860Z,5.8
2018-07-13T01:50:09.284Z,6.1
2018-07-13T01:50:25.707Z,6.4
2018-07-13T01:50:42.133Z,5.8
2018-07-13T01:50:58.556Z,6
2018-07-13T01:51:14.992Z,7.1
2018-07-13T01:51:31.420Z,6.9
2018-07-13T01:51:47.838Z,6.4
2018-07-13T01:52:04.265Z,5.9
2018-07-13T01:52:20.693Z,7
2018-07-13T01:52:37.135Z,6.4
2018-07-13T01:52:53.554Z,6.5
2018-07-13T01:53:09.978Z,6.6
2018-07-13T01:53:26.420Z,6.5
2018-07-13T01:53:42.845Z,5.5
2018-07-13T01:53:59.273Z,5.5
2018-07-13T01:54:15.696Z,5.2
2018-07-13T01:54:32.121Z,6.3
2018-07-13T01:54:48.538Z,8.2
2018-07-13T01:55:04.978Z,7.8
2018-07-13T01:55:21.403Z,5.6
2018-07-13T01:55:37.901Z,5.9
2018-07-13T01:55:54.260Z,5.2
2018-07-13T01:56:10.688Z,5.6
2018-07-13T01:56:28.113Z,6.2
2018-07-13T01:56:44.539Z,6.6
2018-07-13T01:57:00.964Z,6.1
2018-07-13T01:57:17.391Z,7
2018-07-13T01:57:33.837Z,7.6
2018-07-13T01:57:50.261Z,7.1
2018-07-13T01:58:06.686Z,8
2018-07-13T01:58:23.107Z,6.5
2018-07-13T01:58:39.531Z,5.3
2018-07-13T01:58:55.956Z,6.1
2018-07-13T01:59:12.378Z,7.8
2018-07-13T01:59:28.803Z,6.4
2018-07-13T01:59:45.226Z,5.3
2018-07-13T02:00:01.658Z,5.7
2018-07-13T02:00:18.073Z,5.7
2018-07-13T02:00:34.487Z,6
2018-07-13T02:00:50.912Z,6.2
2018-07-13T02:01:07.340Z,6.7
2018-07-13T02:01:23.768Z,7.5
2018-07-13T02:01:40.192Z,7.1
2018-07-13T02:01:56.618Z,6.6
2018-07-13T02:02:13.046Z,6.7
2018-07-13T02:02:29.471Z,6.4
2018-07-13T02:02:45.914Z,6.9
2018-07-13T02:03:02.339Z,6
2018-07-13T02:03:18.767Z,6.5
2018-07-13T02:03:35.189Z,6.6
2018-07-13T02:03:51.618Z,5.5
2018-07-13T02:04:08.042Z,5.8
2018-07-13T02:04:24.471Z,5.9
2018-07-13T02:04:40.891Z,5.6
2018-07-13T02:04:57.323Z,5.7
2018-07-13T02:05:13.743Z,5.6
2018-07-13T02:05:30.166Z,6.4
2018-07-13T02:05:46.591Z,6.5
2018-07-13T02:06:03.028Z,7
2018-07-13T02:06:19.459Z,6.6
2018-07-13T02:06:35.882Z,6.4
2018-07-13T02:06:52.307Z,6.4
2018-07-13T02:07:08.728Z,6.2
2018-07-13T02:07:25.153Z,6.7
2018-07-13T02:07:41.594Z,7.5
2018-07-13T02:07:58.022Z,7.6
2018-07-13T02:08:14.445Z,7
2018-07-13T02:08:30.869Z,6.2
2018-07-13T02:08:47.295Z,7.2
2018-07-13T02:09:03.722Z,7
2018-07-13T02:09:20.146Z,6.9
2018-07-13T02:09:36.571Z,8.7
2018-07-13T02:09:52.994Z,7.3
2018-07-13T02:10:09.407Z,5.3
2018-07-13T02:10:25.833Z,5.7
2018-07-13T02:10:42.257Z,7
2018-07-13T02:10:58.687Z,7.4
2018-07-13T02:11:15.104Z,8.4
2018-07-13T02:11:32.523Z,7
2018-07-13T02:11:48.944Z,7.3
2018-07-13T02:12:05.368Z,8.8
2018-07-13T02:12:21.794Z,8.2
2018-07-13T02:12:38.218Z,6.6
2018-07-13T02:12:54.660Z,6.1
2018-07-13T02:13:11.089Z,7.3
2018-07-13T02:13:27.552Z,7.2
2018-07-13T02:13:43.978Z,6.1
2018-07-13T02:14:00.404Z,6.7
2018-07-13T02:14:16.830Z,6.7
2018-07-13T02:14:33.257Z,6.6
2018-07-13T02:14:49.683Z,6.2
2018-07-13T02:15:06.110Z,6.7
2018-07-13T02:15:22.535Z,6.6
2018-07-13T02:15:38.958Z,6.4
2018-07-13T02:15:55.384Z,6.3
2018-07-13T02:16:11.810Z,7
2018-07-13T02:16:28.237Z,7.6
2018-07-13T02:16:44.660Z,7.8
2018-07-13T02:17:01.085Z,6.1
2018-07-13T02:17:17.500Z,6.9
2018-07-13T02:17:33.926Z,7.1
2018-07-13T02:17:50.405Z,7
2018-07-13T02:18:06.797Z,7.8
2018-07-13T02:18:23.223Z,6.3
2018-07-13T02:18:39.647Z,6.5
2018-07-13T02:18:56.073Z,6.7
2018-07-13T02:19:12.498Z,6.6
2018-07-13T02:19:28.920Z,6.7
2018-07-13T02:19:45.344Z,7.4
2018-07-13T02:20:01.768Z,6.4
2018-07-13T02:20:18.183Z,6.7
2018-07-13T02:20:34.607Z,7.5
2018-07-13T02:20:51.029Z,8.6
2018-07-13T02:21:08.453Z,7.6
2018-07-13T02:21:24.877Z,6.1
2018-07-13T02:21:41.300Z,6.9
2018-07-13T02:21:57.727Z,7.4
2018-07-13T02:22:14.151Z,7.7
2018-07-13T02:22:30.573Z,8.3
2018-07-13T02:22:46.997Z,8.4
2018-07-13T02:23:03.443Z,7.3
2018-07-13T02:23:19.867Z,7
2018-07-13T02:23:36.293Z,6.6
2018-07-13T02:23:52.717Z,5.7
2018-07-13T02:24:09.140Z,7.3
2018-07-13T02:24:25.568Z,7.8
2018-07-13T02:24:41.986Z,6.5
2018-07-13T02:24:58.407Z,5.7
2018-07-13T02:25:14.829Z,7.2
2018-07-13T02:25:31.269Z,7.9
2018-07-13T02:25:47.693Z,6.9
2018-07-13T02:26:04.116Z,8.2
2018-07-13T02:26:20.541Z,9.2
2018-07-13T02:26:36.964Z,8.4
2018-07-13T02:26:53.392Z,7
2018-07-13T02:27:09.833Z,7
2018-07-13T02:27:26.301Z,9.2
2018-07-13T02:27:42.728Z,8.3
2018-07-13T02:27:59.188Z,7.5
2018-07-13T02:28:15.612Z,8.1
2018-07-13T02:28:32.051Z,7.4
2018-07-13T02:28:48.483Z,9
2018-07-13T02:29:04.902Z,7.7
2018-07-13T02:29:21.330Z,6.7
2018-07-13T02:29:37.753Z,9.2
2018-07-13T02:29:54.177Z,8.4
2018-07-13T02:30:10.602Z,8.4
2018-07-13T02:30:27.037Z,8.5
2018-07-13T02:30:43.462Z,9.5
2018-07-13T02:30:59.886Z,9.5
2018-07-13T02:31:16.313Z,8.3
2018-07-13T02:31:32.738Z,8.1
2018-07-13T02:31:49.169Z,7
2018-07-13T02:32:05.587Z,6.3
2018-07-13T02:32:22.012Z,6.6
2018-07-13T02:32:38.434Z,6.5
2018-07-13T02:32:54.865Z,7
2018-07-13T02:33:12.297Z,8
2018-07-13T02:33:28.740Z,7
2018-07-13T02:33:46.233Z,6.3
2018-07-13T02:34:02.584Z,7
2018-07-13T02:34:19.001Z,8.7
2018-07-13T02:34:35.424Z,7.1
2018-07-13T02:34:51.847Z,6.7
2018-07-13T02:35:08.268Z,7.8
2018-07-13T02:35:24.692Z,6.9
2018-07-13T02:35:41.118Z,6.9
2018-07-13T02:35:57.547Z,6.9
2018-07-13T02:36:13.969Z,7.6
2018-07-13T02:36:30.394Z,7
2018-07-13T02:36:46.826Z,9.3
2018-07-13T02:37:03.241Z,8.2
2018-07-13T02:37:19.669Z,7.3
2018-07-13T02:37:36.092Z,6.4
2018-07-13T02:37:52.518Z,7.4
2018-07-13T02:38:08.971Z,7.2
2018-07-13T02:38:25.387Z,7.6
2018-07-13T02:38:41.812Z,8
2018-07-13T02:38:58.246Z,7.4
2018-07-13T02:39:14.666Z,7.5
2018-07-13T02:39:32.080Z,6.9
2018-07-13T02:39:48.502Z,7.7
2018-07-13T02:40:04.940Z,8.4
2018-07-13T02:40:21.363Z,7.3
2018-07-13T02:40:37.789Z,7.1
2018-07-13T02:40:54.286Z,6.2
2018-07-13T02:41:10.648Z,6.7
2018-07-13T02:41:27.072Z,6.7
2018-07-13T02:41:43.496Z,6.7
2018-07-13T02:41:59.915Z,7.5
2018-07-13T02:42:16.341Z,7.5
2018-07-13T02:42:32.766Z,6.2
2018-07-13T02:42:49.189Z,8.5
2018-07-13T02:43:05.654Z,7.9
2018-07-13T02:43:22.078Z,5.9
2018-07-13T02:43:38.502Z,7.3
2018-07-13T02:43:54.925Z,8.8
2018-07-13T02:44:11.348Z,7.8
2018-07-13T02:44:27.774Z,8.8
2018-07-13T02:44:44.199Z,9.6
2018-07-13T02:45:00.668Z,8.1
2018-07-13T02:45:17.095Z,6.8
2018-07-13T02:45:33.518Z,5.9
2018-07-13T02:45:49.941Z,6.9
2018-07-13T02:46:06.375Z,7.3
2018-07-13T02:46:22.803Z,7
2018-07-13T02:46:39.227Z,6.7
2018-07-13T02:46:55.649Z,6.3
2018-07-13T02:47:12.074Z,6.4
2018-07-13T02:47:28.496Z,7
2018-07-13T02:47:44.921Z,6.7
2018-07-13T02:48:01.346Z,6.5
2018-07-13T02:48:18.779Z,7.5
2018-07-13T02:48:35.214Z,8.3
2018-07-13T02:48:51.631Z,6.7
2018-07-13T02:49:08.056Z,6.8
2018-07-13T02:49:24.480Z,6.5
2018-07-13T02:49:40.924Z,6.5
2018-07-13T02:49:57.333Z,7.1
2018-07-13T02:50:13.757Z,7.2
2018-07-13T02:50:30.182Z,7.3
2018-07-13T02:50:46.604Z,6.4
2018-07-13T02:51:03.032Z,6.7
2018-07-13T02:51:19.457Z,7.1
2018-07-13T02:51:35.883Z,6.9
2018-07-13T02:51:52.306Z,7.1
2018-07-13T02:52:08.748Z,7.6
2018-07-13T02:52:25.173Z,7.1
2018-07-13T02:52:41.602Z,6.4
2018-07-13T02:52:58.023Z,7
2018-07-13T02:53:14.464Z,7.2
2018-07-13T02:53:30.887Z,7.8
2018-07-13T02:53:47.310Z,8.2
2018-07-13T02:54:03.732Z,8.5
2018-07-13T02:54:20.156Z,7.3
2018-07-13T02:54:36.585Z,7.2
2018-07-13T02:54:53.005Z,6.3
2018-07-13T02:55:09.428Z,5.7
2018-07-13T02:55:25.850Z,7.4
2018-07-13T02:55:42.275Z,8
2018-07-13T02:55:58.704Z,7.8
2018-07-13T02:56:15.139Z,6.6
2018-07-13T02:56:31.556Z,5.9
2018-07-13T02:56:47.981Z,7.2
2018-07-13T02:57:04.411Z,7.8
2018-07-13T02:57:21.819Z,6.9
2018-07-13T02:57:38.241Z,6.8
2018-07-13T02:57:54.664Z,7.3
2018-07-13T02:58:11.087Z,7.9
2018-07-13T02:58:27.524Z,7.2
2018-07-13T02:58:43.949Z,7.7
2018-07-13T02:59:00.375Z,7.9
2018-07-13T02:59:16.799Z,7.5
2018-07-13T02:59:33.223Z,7.9
2018-07-13T02:59:49.649Z,8.6
2018-07-13T03:00:06.068Z,7.4
2018-07-13T03:00:22.498Z,6.8
2018-07-13T03:00:38.912Z,6.2
2018-07-13T03:00:55.336Z,6.7
2018-07-13T03:01:11.895Z,6.8
2018-07-13T03:01:28.322Z,6.7
2018-07-13T03:01:44.745Z,5.7
2018-07-13T03:02:01.174Z,6.3
2018-07-13T03:02:17.598Z,7.5
2018-07-13T03:02:34.044Z,7.6
2018-07-13T03:02:50.477Z,6
2018-07-13T03:03:06.888Z,5.6
2018-07-13T03:03:23.338Z,6.8
2018-07-13T03:03:39.793Z,6.3
2018-07-13T03:03:56.215Z,5.7
2018-07-13T03:04:12.646Z,6
2018-07-13T03:04:29.068Z,7.2
2018-07-13T03:04:45.491Z,7.3
2018-07-13T03:05:01.917Z,7.2
2018-07-13T03:05:18.341Z,8.2
2018-07-13T03:05:34.766Z,6.8
2018-07-13T03:05:51.191Z,6.1
2018-07-13T03:06:07.615Z,7.3
2018-07-13T03:06:24.043Z,7.1
2018-07-13T03:06:40.467Z,6.4
2018-07-13T03:06:56.891Z,6.7
2018-07-13T03:07:13.316Z,5.9
2018-07-13T03:07:29.742Z,5
2018-07-13T03:07:46.165Z,6.3
2018-07-13T03:08:02.589Z,7.1
2018-07-13T03:08:19.032Z,7.1
2018-07-13T03:08:35.479Z,6.3
2018-07-13T03:08:51.884Z,6.9
2018-07-13T03:09:08.318Z,7.2
2018-07-13T03:09:24.744Z,6.4
2018-07-13T03:09:41.168Z,6
2018-07-13T03:09:58.583Z,7.2
2018-07-13T03:10:15.060Z,8
2018-07-13T03:10:31.433Z,6.6
2018-07-13T03:10:47.863Z,6.1
2018-07-13T03:11:04.280Z,7.6
2018-07-13T03:11:20.704Z,8.1
2018-07-13T03:11:37.127Z,6.5
2018-07-13T03:11:53.551Z,5.4
2018-07-13T03:12:09.963Z,5.8
2018-07-13T03:12:26.386Z,5.7
2018-07-13T03:12:42.809Z,7.2
2018-07-13T03:12:59.231Z,7
2018-07-13T03:13:15.665Z,5.8
2018-07-13T03:13:32.130Z,5.3
2018-07-13T03:13:48.554Z,6.1
2018-07-13T03:14:04.978Z,8.2
2018-07-13T03:14:21.401Z,7
2018-07-13T03:14:37.827Z,7.2
2018-07-13T03:14:54.251Z,7.3
2018-07-13T03:15:10.678Z,6.6
2018-07-13T03:15:27.102Z,6.2
2018-07-13T03:15:43.527Z,6.7
2018-07-13T03:15:59.952Z,6.6
2018-07-13T03:16:16.380Z,6.7
2018-07-13T03:16:32.804Z,9.3
2018-07-13T03:16:49.229Z,8
2018-07-13T03:17:05.656Z,5.8
2018-07-13T03:17:22.081Z,8.3
2018-07-13T03:17:38.507Z,7
2018-07-13T03:17:54.939Z,7.6
2018-07-13T03:18:11.353Z,7.2
2018-07-13T03:18:27.795Z,6.5
2018-07-13T03:18:44.221Z,7
2018-07-13T03:19:00.645Z,5.8
2018-07-13T03:19:17.074Z,5.9
2018-07-13T03:19:33.490Z,6.9
2018-07-13T03:19:49.915Z,7.8
2018-07-13T03:20:06.340Z,8.6
2018-07-13T03:20:22.786Z,7.4
2018-07-13T03:20:39.208Z,7.2
2018-07-13T03:20:55.631Z,6.1
2018-07-13T03:21:12.055Z,6.1
2018-07-13T03:21:28.480Z,6.3
2018-07-13T03:21:44.905Z,6.6
2018-07-13T03:22:01.369Z,6.1
2018-07-13T03:22:17.883Z,6.1
2018-07-13T03:22:34.186Z,6.9
2018-07-13T03:22:50.613Z,6.5
2018-07-13T03:23:07.024Z,6.8
2018-07-13T03:23:23.448Z,7.5
2018-07-13T03:23:39.900Z,5.5
2018-07-13T03:23:56.327Z,6.4
2018-07-13T03:24:12.747Z,7
2018-07-13T03:24:29.180Z,6.4
2018-07-13T03:24:45.602Z,6.6
2018-07-13T03:25:02.028Z,6.8
2018-07-13T03:25:18.475Z,5.7
2018-07-13T03:25:34.911Z,5.5
2018-07-13T03:25:51.336Z,6
2018-07-13T03:26:07.759Z,6.8
2018-07-13T03:26:24.184Z,6.9
2018-07-13T03:26:40.609Z,7.1
2018-07-13T03:26:57.031Z,6.6
2018-07-13T03:27:13.454Z,5.4
2018-07-13T03:27:29.879Z,6
2018-07-13T03:27:46.304Z,6.4
2018-07-13T03:28:02.731Z,7.1
2018-07-13T03:28:19.156Z,6.4
2018-07-13T03:28:35.597Z,6.2
2018-07-13T03:28:52.023Z,6.2
2018-07-13T03:29:08.452Z,6
2018-07-13T03:29:24.870Z,5.4
2018-07-13T03:29:41.293Z,6.3
2018-07-13T03:29:57.724Z,6.9
2018-07-13T03:30:14.144Z,7.4
2018-07-13T03:30:30.579Z,7
2018-07-13T03:30:47.003Z,6.4
2018-07-13T03:31:03.417Z,7.6
2018-07-13T03:31:19.835Z,8
2018-07-13T03:31:36.261Z,7.8
2018-07-13T03:31:52.685Z,7.3
2018-07-13T03:32:09.112Z,6.2
2018-07-13T03:32:25.535Z,5.3
2018-07-13T03:32:41.956Z,5
2018-07-13T03:32:58.379Z,5.6
2018-07-13T03:33:14.810Z,8.1
2018-07-13T03:33:31.229Z,7.5
2018-07-13T03:33:47.670Z,7
2018-07-13T03:34:04.107Z,8
2018-07-13T03:34:20.541Z,7.8
2018-07-13T03:34:36.965Z,7.4
2018-07-13T03:34:53.390Z,7.8
2018-07-13T03:35:09.819Z,8.2
2018-07-13T03:35:26.242Z,8.3
2018-07-13T03:35:42.671Z,7.3
2018-07-13T03:35:59.097Z,6.7
2018-07-13T03:36:15.522Z,6.2
2018-07-13T03:36:31.946Z,6.8
2018-07-13T03:36:48.373Z,6.8
2018-07-13T03:37:04.799Z,6.9
2018-07-13T03:37:21.224Z,7.3
2018-07-13T03:37:37.647Z,6.8
2018-07-13T03:37:54.072Z,6.2
2018-07-13T03:38:10.497Z,7.7
2018-07-13T03:38:26.998Z,7.3
2018-07-13T03:38:43.363Z,7.3
2018-07-13T03:38:59.790Z,6.5
2018-07-13T03:39:16.213Z,5.9
2018-07-13T03:39:32.652Z,7.3
2018-07-13T03:39:49.096Z,8.9
2018-07-13T03:40:05.520Z,7.9
2018-07-13T03:40:21.953Z,7.3
2018-07-13T03:40:38.368Z,6.9
2018-07-13T03:40:54.790Z,6.6
2018-07-13T03:41:11.212Z,6.8
2018-07-13T03:41:27.638Z,6.7
2018-07-13T03:41:44.065Z,7.1
2018-07-13T03:42:00.488Z,7.9
2018-07-13T03:42:16.916Z,8.4
2018-07-13T03:42:33.369Z,7.5
2018-07-13T03:42:49.759Z,7.6
2018-07-13T03:43:06.183Z,8
2018-07-13T03:43:22.612Z,7.4
2018-07-13T03:43:39.029Z,8.4
2018-07-13T03:43:55.520Z,7.7
2018-07-13T03:44:11.896Z,7.5
2018-07-13T03:44:28.339Z,7.6
2018-07-13T03:44:44.764Z,7.9
2018-07-13T03:45:01.190Z,7.5
2018-07-13T03:45:17.612Z,8.6
2018-07-13T03:45:34.036Z,8.6
2018-07-13T03:45:50.467Z,8.5
2018-07-13T03:46:06.905Z,9.2
2018-07-13T03:46:23.327Z,6.3
2018-07-13T03:46:39.751Z,6.1
2018-07-13T03:46:56.283Z,7.4
2018-07-13T03:47:12.704Z,6.9
2018-07-13T03:47:29.126Z,6.6
2018-07-13T03:47:45.549Z,8.7
2018-07-13T03:48:01.975Z,8.5
2018-07-13T03:48:18.464Z,7.2